Warren, Pennsylvania
Current Conditions -  °F | °C
As of 4:35 AM on Saturday 20 Dec 2014 (Local Time) from KJHW Reporting Station
Overcast Overcast  
Wind Chill: -8°   Ceiling: 1400
Heat Index: -5°   Visibility: 10mi
Dew Point: -8°   Wind: 5mph
Humidity: 80%   Direction: 260°W
Pressure: 30.2"   Gusts: NA
Location:  41.84°N, 79.14°W
Report Text: KJHW 200935Z 26004KT 10SM OVC014 M05/M08 A3020 RMK AO1
Loading
Personal Weather Stations






























Interactive Weather Map New forecast layout! Learn more

10-Day Weather Forecast

Advertisements
Track Severe Weather on mobile